sensor_id;sensor_type;location;lat;lon;timestamp;temperature;humidity
22321;DHT22;11328;53.928;18.522;2023-05-10T00:01:07;11.10;79.10
22321;DHT22;11328;53.928;18.522;2023-05-10T00:03:34;11.10;79.20
22321;DHT22;11328;53.928;18.522;2023-05-10T00:06:01;11.10;79.20
22321;DHT22;11328;53.928;18.522;2023-05-10T00:08:28;11.00;79.40
22321;DHT22;11328;53.928;18.522;2023-05-10T00:10:55;11.10;79.50
22321;DHT22;11328;53.928;18.522;2023-05-10T00:13:22;11.00;79.60
22321;DHT22;11328;53.928;18.522;2023-05-10T00:15:49;11.00;79.70
22321;DHT22;11328;53.928;18.522;2023-05-10T00:18:17;10.90;79.90
22321;DHT22;11328;53.928;18.522;2023-05-10T00:20:43;10.90;79.90
22321;DHT22;11328;53.928;18.522;2023-05-10T00:23:15;10.90;80.00
22321;DHT22;11328;53.928;18.522;2023-05-10T00:25:42;10.80;80.10
22321;DHT22;11328;53.928;18.522;2023-05-10T00:28:09;10.80;80.20
22321;DHT22;11328;53.928;18.522;2023-05-10T00:30:35;10.80;80.40
22321;DHT22;11328;53.928;18.522;2023-05-10T00:33:02;10.80;80.40
22321;DHT22;11328;53.928;18.522;2023-05-10T00:35:29;10.70;80.40
22321;DHT22;11328;53.928;18.522;2023-05-10T00:37:57;10.70;80.40
22321;DHT22;11328;53.928;18.522;2023-05-10T00:40:24;10.70;80.60
22321;DHT22;11328;53.928;18.522;2023-05-10T00:42:51;10.60;80.60
22321;DHT22;11328;53.928;18.522;2023-05-10T00:45:18;10.60;80.80
22321;DHT22;11328;53.928;18.522;2023-05-10T00:47:45;10.60;81.00
22321;DHT22;11328;53.928;18.522;2023-05-10T00:50:14;10.60;80.90
22321;DHT22;11328;53.928;18.522;2023-05-10T00:52:42;10.50;81.70
22321;DHT22;11328;53.928;18.522;2023-05-10T00:55:11;10.50;81.00
22321;DHT22;11328;53.928;18.522;2023-05-10T00:57:38;10.50;81.10
22321;DHT22;11328;53.928;18.522;2023-05-10T01:00:06;10.40;81.20
22321;DHT22;11328;53.928;18.522;2023-05-10T01:02:34;10.30;81.60
22321;DHT22;11328;53.928;18.522;2023-05-10T01:05:02;10.30;81.90
22321;DHT22;11328;53.928;18.522;2023-05-10T01:07:30;10.20;81.90
22321;DHT22;11328;53.928;18.522;2023-05-10T01:09:57;10.20;82.00
22321;DHT22;11328;53.928;18.522;2023-05-10T01:12:24;10.20;81.90
22321;DHT22;11328;53.928;18.522;2023-05-10T01:14:51;10.20;82.10
22321;DHT22;11328;53.928;18.522;2023-05-10T01:17:21;10.10;82.10
22321;DHT22;11328;53.928;18.522;2023-05-10T01:19:49;10.10;82.30
22321;DHT22;11328;53.928;18.522;2023-05-10T01:30:58;10.00;82.50
22321;DHT22;11328;53.928;18.522;2023-05-10T01:34:09;10.00;82.60
22321;DHT22;11328;53.928;18.522;2023-05-10T01:36:48;10.00;83.60
22321;DHT22;11328;53.928;18.522;2023-05-10T01:39:50;9.90;82.70
22321;DHT22;11328;53.928;18.522;2023-05-10T01:42:43;9.90;82.80
22321;DHT22;11328;53.928;18.522;2023-05-10T01:45:27;9.90;82.90
22321;DHT22;11328;53.928;18.522;2023-05-10T01:48:10;9.90;83.10
22321;DHT22;11328;53.928;18.522;2023-05-10T01:50:42;9.90;83.20
22321;DHT22;11328;53.928;18.522;2023-05-10T01:53:12;9.80;83.20
22321;DHT22;11328;53.928;18.522;2023-05-10T01:55:46;9.80;83.20
22321;DHT22;11328;53.928;18.522;2023-05-10T01:58:24;9.80;83.20
22321;DHT22;11328;53.928;18.522;2023-05-10T02:00:54;9.80;83.50
22321;DHT22;11328;53.928;18.522;2023-05-10T02:03:25;9.80;83.70
22321;DHT22;11328;53.928;18.522;2023-05-10T02:05:55;9.70;83.90
22321;DHT22;11328;53.928;18.522;2023-05-10T02:08:24;9.70;84.00
22321;DHT22;11328;53.928;18.522;2023-05-10T02:10:54;9.60;84.00
22321;DHT22;11328;53.928;18.522;2023-05-10T02:13:24;9.60;84.30
22321;DHT22;11328;53.928;18.522;2023-05-10T02:15:53;9.60;84.40
22321;DHT22;11328;53.928;18.522;2023-05-10T02:18:22;9.60;84.50
22321;DHT22;11328;53.928;18.522;2023-05-10T02:20:52;9.50;84.60
22321;DHT22;11328;53.928;18.522;2023-05-10T02:23:22;9.50;84.70
22321;DHT22;11328;53.928;18.522;2023-05-10T02:25:51;9.50;84.70
22321;DHT22;11328;53.928;18.522;2023-05-10T02:28:22;9.50;84.80
22321;DHT22;11328;53.928;18.522;2023-05-10T02:30:52;9.50;84.90
22321;DHT22;11328;53.928;18.522;2023-05-10T02:33:21;9.50;84.90
22321;DHT22;11328;53.928;18.522;2023-05-10T02:35:50;9.50;84.90
22321;DHT22;11328;53.928;18.522;2023-05-10T02:38:19;9.50;84.90
22321;DHT22;11328;53.928;18.522;2023-05-10T02:40:48;9.50;84.80
22321;DHT22;11328;53.928;18.522;2023-05-10T02:43:17;9.40;84.80
22321;DHT22;11328;53.928;18.522;2023-05-10T02:45:47;9.40;84.70
22321;DHT22;11328;53.928;18.522;2023-05-10T02:48:15;9.50;84.80
22321;DHT22;11328;53.928;18.522;2023-05-10T02:50:44;9.50;84.80
22321;DHT22;11328;53.928;18.522;2023-05-10T02:53:19;9.50;84.80
22321;DHT22;11328;53.928;18.522;2023-05-10T02:55:53;9.50;84.60
22321;DHT22;11328;53.928;18.522;2023-05-10T02:58:24;9.50;84.60
22321;DHT22;11328;53.928;18.522;2023-05-10T03:00:51;9.50;84.60
22321;DHT22;11328;53.928;18.522;2023-05-10T03:03:21;9.40;84.60
22321;DHT22;11328;53.928;18.522;2023-05-10T03:05:48;9.50;84.60
22321;DHT22;11328;53.928;18.522;2023-05-10T03:08:15;9.50;84.60
22321;DHT22;11328;53.928;18.522;2023-05-10T03:10:58;9.40;84.60
22321;DHT22;11328;53.928;18.522;2023-05-10T03:17:00;9.40;84.70
22321;DHT22;11328;53.928;18.522;2023-05-10T03:19:46;9.40;84.90
22321;DHT22;11328;53.928;18.522;2023-05-10T03:22:34;9.40;85.00
22321;DHT22;11328;53.928;18.522;2023-05-10T03:25:08;9.40;85.20
22321;DHT22;11328;53.928;18.522;2023-05-10T03:27:40;9.40;85.10
22321;DHT22;11328;53.928;18.522;2023-05-10T03:30:11;9.40;85.30
22321;DHT22;11328;53.928;18.522;2023-05-10T03:32:39;9.40;85.30
22321;DHT22;11328;53.928;18.522;2023-05-10T03:35:07;9.40;85.30
22321;DHT22;11328;53.928;18.522;2023-05-10T03:37:35;9.40;85.20
22321;DHT22;11328;53.928;18.522;2023-05-10T03:40:03;9.50;85.30
22321;DHT22;11328;53.928;18.522;2023-05-10T03:42:30;9.50;85.60
22321;DHT22;11328;53.928;18.522;2023-05-10T03:44:57;9.50;85.60
22321;DHT22;11328;53.928;18.522;2023-05-10T03:47:24;9.50;85.80
22321;DHT22;11328;53.928;18.522;2023-05-10T03:49:51;9.50;85.60
22321;DHT22;11328;53.928;18.522;2023-05-10T03:52:18;9.60;85.80
22321;DHT22;11328;53.928;18.522;2023-05-10T03:54:45;9.60;86.10
22321;DHT22;11328;53.928;18.522;2023-05-10T03:57:12;9.60;86.20
22321;DHT22;11328;53.928;18.522;2023-05-10T03:59:39;9.60;86.30
22321;DHT22;11328;53.928;18.522;2023-05-10T04:02:06;9.60;86.30
22321;DHT22;11328;53.928;18.522;2023-05-10T04:04:33;9.70;86.80
22321;DHT22;11328;53.928;18.522;2023-05-10T04:07:00;9.70;87.10
22321;DHT22;11328;53.928;18.522;2023-05-10T04:09:26;9.80;87.50
22321;DHT22;11328;53.928;18.522;2023-05-10T04:11:53;9.80;87.60
22321;DHT22;11328;53.928;18.522;2023-05-10T04:14:20;9.80;87.70
22321;DHT22;11328;53.928;18.522;2023-05-10T04:16:47;9.80;88.30
22321;DHT22;11328;53.928;18.522;2023-05-10T04:19:14;9.90;88.70
22321;DHT22;11328;53.928;18.522;2023-05-10T04:21:41;9.90;88.30
22321;DHT22;11328;53.928;18.522;2023-05-10T04:24:08;10.00;88.10
22321;DHT22;11328;53.928;18.522;2023-05-10T04:26:34;10.10;88.10
22321;DHT22;11328;53.928;18.522;2023-05-10T04:29:01;10.10;88.00
22321;DHT22;11328;53.928;18.522;2023-05-10T04:31:28;10.20;88.00
22321;DHT22;11328;53.928;18.522;2023-05-10T04:33:55;10.30;88.10
22321;DHT22;11328;53.928;18.522;2023-05-10T04:36:22;10.30;87.70
22321;DHT22;11328;53.928;18.522;2023-05-10T04:38:49;10.30;88.10
22321;DHT22;11328;53.928;18.522;2023-05-10T04:41:16;10.40;87.90
22321;DHT22;11328;53.928;18.522;2023-05-10T04:43:43;10.50;88.10
22321;DHT22;11328;53.928;18.522;2023-05-10T04:46:10;10.70;88.00
22321;DHT22;11328;53.928;18.522;2023-05-10T04:48:37;10.70;88.30
22321;DHT22;11328;53.928;18.522;2023-05-10T04:51:04;10.80;88.30
22321;DHT22;11328;53.928;18.522;2023-05-10T04:53:31;10.90;88.30
22321;DHT22;11328;53.928;18.522;2023-05-10T04:55:58;11.00;88.00
22321;DHT22;11328;53.928;18.522;2023-05-10T04:58:25;11.00;88.50
22321;DHT22;11328;53.928;18.522;2023-05-10T05:00:52;11.20;88.20
22321;DHT22;11328;53.928;18.522;2023-05-10T05:03:19;11.30;87.30
22321;DHT22;11328;53.928;18.522;2023-05-10T05:05:46;11.40;87.30
22321;DHT22;11328;53.928;18.522;2023-05-10T05:08:13;11.50;87.90
22321;DHT22;11328;53.928;18.522;2023-05-10T05:10:40;11.60;86.50
22321;DHT22;11328;53.928;18.522;2023-05-10T05:13:07;11.80;86.60
22321;DHT22;11328;53.928;18.522;2023-05-10T05:15:34;11.90;85.20
22321;DHT22;11328;53.928;18.522;2023-05-10T05:18:01;12.00;85.10
22321;DHT22;11328;53.928;18.522;2023-05-10T05:20:28;12.20;84.60
22321;DHT22;11328;53.928;18.522;2023-05-10T05:22:58;12.40;83.90
22321;DHT22;11328;53.928;18.522;2023-05-10T05:25:25;12.60;84.20
22321;DHT22;11328;53.928;18.522;2023-05-10T05:27:52;12.80;83.90
22321;DHT22;11328;53.928;18.522;2023-05-10T05:30:20;13.00;83.40
22321;DHT22;11328;53.928;18.522;2023-05-10T05:32:46;13.20;82.70
22321;DHT22;11328;53.928;18.522;2023-05-10T05:35:13;13.40;81.60
22321;DHT22;11328;53.928;18.522;2023-05-10T05:37:41;13.50;81.40
22321;DHT22;11328;53.928;18.522;2023-05-10T05:40:11;13.70;81.40
22321;DHT22;11328;53.928;18.522;2023-05-10T05:42:39;13.90;82.20
22321;DHT22;11328;53.928;18.522;2023-05-10T05:45:06;14.10;81.20
22321;DHT22;11328;53.928;18.522;2023-05-10T05:47:35;14.20;80.50
22321;DHT22;11328;53.928;18.522;2023-05-10T05:50:02;14.40;79.40
22321;DHT22;11328;53.928;18.522;2023-05-10T05:52:29;14.60;78.90
22321;DHT22;11328;53.928;18.522;2023-05-10T05:54:57;14.70;78.60
22321;DHT22;11328;53.928;18.522;2023-05-10T05:57:23;14.80;78.20
22321;DHT22;11328;53.928;18.522;2023-05-10T05:59:50;15.00;78.30
22321;DHT22;11328;53.928;18.522;2023-05-10T06:02:17;15.10;79.00
22321;DHT22;11328;53.928;18.522;2023-05-10T06:04:44;15.40;78.00
22321;DHT22;11328;53.928;18.522;2023-05-10T06:07:11;15.50;76.90
22321;DHT22;11328;53.928;18.522;2023-05-10T06:09:38;15.60;76.30
22321;DHT22;11328;53.928;18.522;2023-05-10T06:12:05;15.70;76.40
22321;DHT22;11328;53.928;18.522;2023-05-10T06:14:32;15.90;76.20
22321;DHT22;11328;53.928;18.522;2023-05-10T06:16:59;16.00;75.90
22321;DHT22;11328;53.928;18.522;2023-05-10T06:19:26;16.10;77.10
22321;DHT22;11328;53.928;18.522;2023-05-10T06:21:53;16.20;76.30
22321;DHT22;11328;53.928;18.522;2023-05-10T06:24:20;16.40;74.70
22321;DHT22;11328;53.928;18.522;2023-05-10T06:26:48;16.50;75.20
22321;DHT22;11328;53.928;18.522;2023-05-10T06:29:16;16.70;74.10
22321;DHT22;11328;53.928;18.522;2023-05-10T06:31:43;16.90;74.80
22321;DHT22;11328;53.928;18.522;2023-05-10T06:34:10;17.00;73.30
22321;DHT22;11328;53.928;18.522;2023-05-10T06:36:38;17.20;74.20
22321;DHT22;11328;53.928;18.522;2023-05-10T06:39:05;17.50;72.60
22321;DHT22;11328;53.928;18.522;2023-05-10T06:41:32;17.60;72.10
22321;DHT22;11328;53.928;18.522;2023-05-10T06:43:59;17.70;72.50
22321;DHT22;11328;53.928;18.522;2023-05-10T06:46:25;17.80;71.00
22321;DHT22;11328;53.928;18.522;2023-05-10T06:48:52;17.90;71.00
22321;DHT22;11328;53.928;18.522;2023-05-10T06:51:19;17.90;70.90
22321;DHT22;11328;53.928;18.522;2023-05-10T06:53:47;18.00;71.50
22321;DHT22;11328;53.928;18.522;2023-05-10T06:56:14;18.20;70.50
22321;DHT22;11328;53.928;18.522;2023-05-10T06:58:41;18.40;69.80
22321;DHT22;11328;53.928;18.522;2023-05-10T07:01:08;18.50;69.60
22321;DHT22;11328;53.928;18.522;2023-05-10T07:03:35;18.50;67.80
22321;DHT22;11328;53.928;18.522;2023-05-10T07:06:03;18.60;67.00
22321;DHT22;11328;53.928;18.522;2023-05-10T07:08:34;18.60;67.50
22321;DHT22;11328;53.928;18.522;2023-05-10T07:11:05;18.70;68.20
22321;DHT22;11328;53.928;18.522;2023-05-10T07:13:37;18.80;68.00
22321;DHT22;11328;53.928;18.522;2023-05-10T07:16:05;18.90;67.10
22321;DHT22;11328;53.928;18.522;2023-05-10T07:18:33;19.00;66.10
22321;DHT22;11328;53.928;18.522;2023-05-10T07:21:00;19.00;66.50
22321;DHT22;11328;53.928;18.522;2023-05-10T07:23:27;19.20;66.30
22321;DHT22;11328;53.928;18.522;2023-05-10T07:25:54;19.30;66.10
22321;DHT22;11328;53.928;18.522;2023-05-10T07:28:21;19.30;65.40
22321;DHT22;11328;53.928;18.522;2023-05-10T07:30:48;19.30;65.30
22321;DHT22;11328;53.928;18.522;2023-05-10T07:33:16;19.40;63.80
22321;DHT22;11328;53.928;18.522;2023-05-10T07:35:43;19.50;63.90
22321;DHT22;11328;53.928;18.522;2023-05-10T07:38:10;19.70;64.50
22321;DHT22;11328;53.928;18.522;2023-05-10T07:40:39;19.60;63.40
22321;DHT22;11328;53.928;18.522;2023-05-10T07:43:06;19.80;65.10
22321;DHT22;11328;53.928;18.522;2023-05-10T07:45:33;19.90;63.60
22321;DHT22;11328;53.928;18.522;2023-05-10T07:48:00;20.10;63.80
22321;DHT22;11328;53.928;18.522;2023-05-10T07:50:28;20.10;58.70
22321;DHT22;11328;53.928;18.522;2023-05-10T07:52:55;20.10;59.30
22321;DHT22;11328;53.928;18.522;2023-05-10T07:55:22;20.20;61.20
22321;DHT22;11328;53.928;18.522;2023-05-10T07:57:49;20.30;60.10
22321;DHT22;11328;53.928;18.522;2023-05-10T08:00:20;20.40;60.80
22321;DHT22;11328;53.928;18.522;2023-05-10T08:02:47;20.60;60.40
22321;DHT22;11328;53.928;18.522;2023-05-10T08:05:14;20.70;62.50
22321;DHT22;11328;53.928;18.522;2023-05-10T08:07:42;20.80;62.30
22321;DHT22;11328;53.928;18.522;2023-05-10T08:10:09;20.90;59.50
22321;DHT22;11328;53.928;18.522;2023-05-10T08:12:38;21.00;60.00
22321;DHT22;11328;53.928;18.522;2023-05-10T08:15:05;21.00;57.90
22321;DHT22;11328;53.928;18.522;2023-05-10T08:17:33;21.10;59.00
22321;DHT22;11328;53.928;18.522;2023-05-10T08:20:00;21.10;59.10
22321;DHT22;11328;53.928;18.522;2023-05-10T08:22:27;21.20;58.90
22321;DHT22;11328;53.928;18.522;2023-05-10T08:24:54;21.20;59.20
22321;DHT22;11328;53.928;18.522;2023-05-10T08:27:21;21.20;59.60
22321;DHT22;11328;53.928;18.522;2023-05-10T08:29:48;21.20;57.00
22321;DHT22;11328;53.928;18.522;2023-05-10T08:32:16;21.10;60.10
22321;DHT22;11328;53.928;18.522;2023-05-10T08:34:43;21.20;57.10
22321;DHT22;11328;53.928;18.522;2023-05-10T08:37:10;21.20;57.50
22321;DHT22;11328;53.928;18.522;2023-05-10T08:39:40;21.20;58.30
22321;DHT22;11328;53.928;18.522;2023-05-10T08:42:07;21.10;57.30
22321;DHT22;11328;53.928;18.522;2023-05-10T08:44:36;21.10;57.60
22321;DHT22;11328;53.928;18.522;2023-05-10T08:47:06;21.20;57.70
22321;DHT22;11328;53.928;18.522;2023-05-10T08:49:34;21.30;58.60
22321;DHT22;11328;53.928;18.522;2023-05-10T08:52:03;21.30;59.50
22321;DHT22;11328;53.928;18.522;2023-05-10T08:54:33;21.60;59.10
22321;DHT22;11328;53.928;18.522;2023-05-10T08:57:01;21.60;56.90
22321;DHT22;11328;53.928;18.522;2023-05-10T08:59:28;21.70;58.10
22321;DHT22;11328;53.928;18.522;2023-05-10T09:01:58;21.60;57.10
22321;DHT22;11328;53.928;18.522;2023-05-10T09:04:27;21.60;55.80
22321;DHT22;11328;53.928;18.522;2023-05-10T09:06:56;21.60;57.00
22321;DHT22;11328;53.928;18.522;2023-05-10T09:09:24;21.70;57.50
22321;DHT22;11328;53.928;18.522;2023-05-10T09:11:52;21.80;57.60
22321;DHT22;11328;53.928;18.522;2023-05-10T09:14:20;21.90;57.70
22321;DHT22;11328;53.928;18.522;2023-05-10T09:16:49;21.90;57.10
22321;DHT22;11328;53.928;18.522;2023-05-10T09:19:16;22.10;58.20
22321;DHT22;11328;53.928;18.522;2023-05-10T09:21:43;22.10;57.00
22321;DHT22;11328;53.928;18.522;2023-05-10T09:24:11;22.30;55.60
22321;DHT22;11328;53.928;18.522;2023-05-10T09:26:46;22.30;54.50
22321;DHT22;11328;53.928;18.522;2023-05-10T09:29:15;22.30;55.00
22321;DHT22;11328;53.928;18.522;2023-05-10T09:31:52;22.30;54.80
22321;DHT22;11328;53.928;18.522;2023-05-10T09:34:30;22.30;54.30
22321;DHT22;11328;53.928;18.522;2023-05-10T09:37:00;22.40;56.10
22321;DHT22;11328;53.928;18.522;2023-05-10T09:39:33;22.50;55.40
22321;DHT22;11328;53.928;18.522;2023-05-10T09:42:08;22.50;54.60
22321;DHT22;11328;53.928;18.522;2023-05-10T09:44:36;22.60;55.30
22321;DHT22;11328;53.928;18.522;2023-05-10T09:47:04;22.70;55.80
22321;DHT22;11328;53.928;18.522;2023-05-10T09:49:32;22.70;53.70
22321;DHT22;11328;53.928;18.522;2023-05-10T09:52:04;22.50;55.00
22321;DHT22;11328;53.928;18.522;2023-05-10T09:54:33;22.50;53.50
22321;DHT22;11328;53.928;18.522;2023-05-10T09:57:00;22.50;52.30
22321;DHT22;11328;53.928;18.522;2023-05-10T09:59:28;22.60;53.10
22321;DHT22;11328;53.928;18.522;2023-05-10T10:01:59;22.70;54.10
22321;DHT22;11328;53.928;18.522;2023-05-10T10:04:27;22.70;54.90
22321;DHT22;11328;53.928;18.522;2023-05-10T10:07:02;22.90;54.10
22321;DHT22;11328;53.928;18.522;2023-05-10T10:09:31;22.90;52.80
22321;DHT22;11328;53.928;18.522;2023-05-10T10:12:01;23.00;52.10
22321;DHT22;11328;53.928;18.522;2023-05-10T10:14:29;23.10;53.00
22321;DHT22;11328;53.928;18.522;2023-05-10T10:16:56;23.00;51.80
22321;DHT22;11328;53.928;18.522;2023-05-10T10:19:34;23.00;53.40
22321;DHT22;11328;53.928;18.522;2023-05-10T10:22:04;22.90;55.70
22321;DHT22;11328;53.928;18.522;2023-05-10T10:24:32;22.90;54.80
22321;DHT22;11328;53.928;18.522;2023-05-10T10:27:15;23.00;55.00
22321;DHT22;11328;53.928;18.522;2023-05-10T10:30:13;23.20;52.70
22321;DHT22;11328;53.928;18.522;2023-05-10T10:35:59;23.30;52.90
22321;DHT22;11328;53.928;18.522;2023-05-10T10:41:35;23.40;53.70
22321;DHT22;11328;53.928;18.522;2023-05-10T10:47:03;23.50;52.20
22321;DHT22;11328;53.928;18.522;2023-05-10T10:49:33;23.50;53.30
22321;DHT22;11328;53.928;18.522;2023-05-10T10:52:40;23.40;53.60
22321;DHT22;11328;53.928;18.522;2023-05-10T10:55:20;23.30;52.30
22321;DHT22;11328;53.928;18.522;2023-05-10T10:57:54;23.40;54.20
22321;DHT22;11328;53.928;18.522;2023-05-10T11:00:33;23.40;53.30
22321;DHT22;11328;53.928;18.522;2023-05-10T11:03:08;23.30;52.90
22321;DHT22;11328;53.928;18.522;2023-05-10T11:05:39;23.20;53.30
22321;DHT22;11328;53.928;18.522;2023-05-10T11:13:41;23.40;53.10
22321;DHT22;11328;53.928;18.522;2023-05-10T11:16:21;23.40;51.20
22321;DHT22;11328;53.928;18.522;2023-05-10T11:19:07;23.40;52.10
22321;DHT22;11328;53.928;18.522;2023-05-10T11:22:11;23.30;52.90
22321;DHT22;11328;53.928;18.522;2023-05-10T11:24:56;23.40;52.60
22321;DHT22;11328;53.928;18.522;2023-05-10T11:27:24;23.50;53.20
22321;DHT22;11328;53.928;18.522;2023-05-10T11:29:52;23.50;52.90
22321;DHT22;11328;53.928;18.522;2023-05-10T11:32:21;23.60;52.90
22321;DHT22;11328;53.928;18.522;2023-05-10T11:34:48;23.60;53.10
22321;DHT22;11328;53.928;18.522;2023-05-10T11:37:15;23.50;52.40
22321;DHT22;11328;53.928;18.522;2023-05-10T11:39:46;23.60;53.50
22321;DHT22;11328;53.928;18.522;2023-05-10T11:42:14;23.70;52.90
22321;DHT22;11328;53.928;18.522;2023-05-10T11:44:41;23.70;53.60
22321;DHT22;11328;53.928;18.522;2023-05-10T11:47:08;23.70;54.20
22321;DHT22;11328;53.928;18.522;2023-05-10T11:49:35;23.90;54.60
22321;DHT22;11328;53.928;18.522;2023-05-10T11:52:06;23.90;54.30
22321;DHT22;11328;53.928;18.522;2023-05-10T11:54:34;24.00;53.50
22321;DHT22;11328;53.928;18.522;2023-05-10T11:57:02;24.00;53.20
22321;DHT22;11328;53.928;18.522;2023-05-10T11:59:29;23.90;53.40
22321;DHT22;11328;53.928;18.522;2023-05-10T12:01:56;23.90;55.00
22321;DHT22;11328;53.928;18.522;2023-05-10T12:04:23;24.00;55.20
22321;DHT22;11328;53.928;18.522;2023-05-10T12:06:51;23.90;54.30
22321;DHT22;11328;53.928;18.522;2023-05-10T12:09:18;23.80;53.00
22321;DHT22;11328;53.928;18.522;2023-05-10T12:12:02;23.70;53.80
22321;DHT22;11328;53.928;18.522;2023-05-10T12:14:29;23.70;53.60
22321;DHT22;11328;53.928;18.522;2023-05-10T12:17:01;23.80;53.00
22321;DHT22;11328;53.928;18.522;2023-05-10T12:19:28;23.70;53.20
22321;DHT22;11328;53.928;18.522;2023-05-10T12:22:07;23.80;52.50
22321;DHT22;11328;53.928;18.522;2023-05-10T12:24:37;23.70;52.80
22321;DHT22;11328;53.928;18.522;2023-05-10T12:27:10;23.70;54.80
22321;DHT22;11328;53.928;18.522;2023-05-10T12:29:41;23.70;52.10
22321;DHT22;11328;53.928;18.522;2023-05-10T12:32:11;23.70;52.30
22321;DHT22;11328;53.928;18.522;2023-05-10T12:34:38;23.50;52.10
22321;DHT22;11328;53.928;18.522;2023-05-10T12:37:05;23.50;53.50
22321;DHT22;11328;53.928;18.522;2023-05-10T12:39:39;23.40;52.00
22321;DHT22;11328;53.928;18.522;2023-05-10T12:42:09;23.40;52.20
22321;DHT22;11328;53.928;18.522;2023-05-10T12:44:36;23.40;52.50
22321;DHT22;11328;53.928;18.522;2023-05-10T12:47:03;23.40;52.00
22321;DHT22;11328;53.928;18.522;2023-05-10T12:49:31;23.20;52.20
22321;DHT22;11328;53.928;18.522;2023-05-10T12:51:58;23.20;53.60
22321;DHT22;11328;53.928;18.522;2023-05-10T12:54:25;23.20;53.80
22321;DHT22;11328;53.928;18.522;2023-05-10T12:56:52;23.20;54.10
22321;DHT22;11328;53.928;18.522;2023-05-10T12:59:19;23.20;51.70
22321;DHT22;11328;53.928;18.522;2023-05-10T13:01:46;23.10;52.80
22321;DHT22;11328;53.928;18.522;2023-05-10T13:04:13;23.10;52.30
22321;DHT22;11328;53.928;18.522;2023-05-10T13:06:40;23.00;51.60
22321;DHT22;11328;53.928;18.522;2023-05-10T13:09:06;23.00;53.50
22321;DHT22;11328;53.928;18.522;2023-05-10T13:11:34;23.00;52.80
22321;DHT22;11328;53.928;18.522;2023-05-10T13:14:01;23.00;53.30
22321;DHT22;11328;53.928;18.522;2023-05-10T13:16:29;23.00;53.20
22321;DHT22;11328;53.928;18.522;2023-05-10T13:18:56;22.90;52.80
22321;DHT22;11328;53.928;18.522;2023-05-10T13:21:24;22.80;52.40
22321;DHT22;11328;53.928;18.522;2023-05-10T13:23:52;22.80;51.60
22321;DHT22;11328;53.928;18.522;2023-05-10T13:26:19;22.70;53.50
22321;DHT22;11328;53.928;18.522;2023-05-10T13:28:46;22.80;53.90
22321;DHT22;11328;53.928;18.522;2023-05-10T13:31:15;22.70;52.60
22321;DHT22;11328;53.928;18.522;2023-05-10T13:33:42;22.60;52.70
22321;DHT22;11328;53.928;18.522;2023-05-10T13:36:09;22.50;53.10
22321;DHT22;11328;53.928;18.522;2023-05-10T13:38:36;22.60;54.20
22321;DHT22;11328;53.928;18.522;2023-05-10T13:41:06;22.60;52.50
22321;DHT22;11328;53.928;18.522;2023-05-10T13:43:33;22.60;52.90
22321;DHT22;11328;53.928;18.522;2023-05-10T13:46:01;22.60;51.90
22321;DHT22;11328;53.928;18.522;2023-05-10T13:48:29;22.60;51.50
22321;DHT22;11328;53.928;18.522;2023-05-10T13:50:56;22.60;53.20
22321;DHT22;11328;53.928;18.522;2023-05-10T13:53:23;22.60;53.00
22321;DHT22;11328;53.928;18.522;2023-05-10T13:59:09;22.60;54.20
22321;DHT22;11328;53.928;18.522;2023-05-10T14:01:36;22.60;54.50
22321;DHT22;11328;53.928;18.522;2023-05-10T14:04:03;22.60;52.10
22321;DHT22;11328;53.928;18.522;2023-05-10T14:06:30;22.50;52.50
22321;DHT22;11328;53.928;18.522;2023-05-10T14:08:58;22.50;52.60
22321;DHT22;11328;53.928;18.522;2023-05-10T14:11:25;22.50;52.40
22321;DHT22;11328;53.928;18.522;2023-05-10T14:13:52;22.50;52.70
22321;DHT22;11328;53.928;18.522;2023-05-10T14:16:19;22.60;52.20
22321;DHT22;11328;53.928;18.522;2023-05-10T14:18:46;22.50;52.90
22321;DHT22;11328;53.928;18.522;2023-05-10T14:21:13;22.50;51.30
22321;DHT22;11328;53.928;18.522;2023-05-10T14:23:40;22.50;53.60
22321;DHT22;11328;53.928;18.522;2023-05-10T14:26:07;22.50;55.10
22321;DHT22;11328;53.928;18.522;2023-05-10T14:28:35;22.50;53.40
22321;DHT22;11328;53.928;18.522;2023-05-10T14:31:02;22.50;53.20
22321;DHT22;11328;53.928;18.522;2023-05-10T14:33:29;22.50;54.10
22321;DHT22;11328;53.928;18.522;2023-05-10T14:35:56;22.60;55.10
22321;DHT22;11328;53.928;18.522;2023-05-10T14:38:23;22.60;53.90
22321;DHT22;11328;53.928;18.522;2023-05-10T14:40:50;22.60;53.00
22321;DHT22;11328;53.928;18.522;2023-05-10T14:43:17;22.60;53.50
22321;DHT22;11328;53.928;18.522;2023-05-10T14:45:44;22.60;54.30
22321;DHT22;11328;53.928;18.522;2023-05-10T14:48:11;22.50;55.00
22321;DHT22;11328;53.928;18.522;2023-05-10T14:50:44;22.50;53.80
22321;DHT22;11328;53.928;18.522;2023-05-10T14:53:36;22.50;54.40
22321;DHT22;11328;53.928;18.522;2023-05-10T14:56:03;22.50;53.90
22321;DHT22;11328;53.928;18.522;2023-05-10T14:58:30;22.50;54.30
22321;DHT22;11328;53.928;18.522;2023-05-10T15:01:00;22.40;53.70
22321;DHT22;11328;53.928;18.522;2023-05-10T15:03:28;22.40;53.00
22321;DHT22;11328;53.928;18.522;2023-05-10T15:05:56;22.30;52.60
22321;DHT22;11328;53.928;18.522;2023-05-10T15:08:24;22.30;53.60
22321;DHT22;11328;53.928;18.522;2023-05-10T15:10:52;22.30;54.30
22321;DHT22;11328;53.928;18.522;2023-05-10T15:13:19;22.30;53.50
22321;DHT22;11328;53.928;18.522;2023-05-10T15:15:46;22.30;52.40
22321;DHT22;11328;53.928;18.522;2023-05-10T15:18:13;22.20;52.50
22321;DHT22;11328;53.928;18.522;2023-05-10T15:20:40;22.20;52.50
22321;DHT22;11328;53.928;18.522;2023-05-10T15:23:07;22.10;52.90
22321;DHT22;11328;53.928;18.522;2023-05-10T15:25:34;22.00;52.90
22321;DHT22;11328;53.928;18.522;2023-05-10T15:28:04;22.00;54.00
22321;DHT22;11328;53.928;18.522;2023-05-10T15:30:31;21.90;54.50
22321;DHT22;11328;53.928;18.522;2023-05-10T15:32:58;22.00;53.70
22321;DHT22;11328;53.928;18.522;2023-05-10T15:35:26;21.90;53.80
22321;DHT22;11328;53.928;18.522;2023-05-10T15:37:53;21.90;54.80
22321;DHT22;11328;53.928;18.522;2023-05-10T15:40:20;21.90;54.80
22321;DHT22;11328;53.928;18.522;2023-05-10T15:42:47;21.90;55.10
22321;DHT22;11328;53.928;18.522;2023-05-10T15:45:14;21.90;55.30
22321;DHT22;11328;53.928;18.522;2023-05-10T15:47:42;21.80;55.30
22321;DHT22;11328;53.928;18.522;2023-05-10T15:50:10;21.80;55.20
22321;DHT22;11328;53.928;18.522;2023-05-10T15:52:38;21.70;54.30
22321;DHT22;11328;53.928;18.522;2023-05-10T15:55:05;21.60;55.10
22321;DHT22;11328;53.928;18.522;2023-05-10T15:57:40;21.60;56.00
22321;DHT22;11328;53.928;18.522;2023-05-10T16:00:09;21.50;54.60